Time;durP1;ratioP1;P1;durP2;ratioP2;P2;SDS_P1;SDS_P2;PMS_P1;PMS_P2;Temp;Humidity;BMP_temperature;BMP_pressure;BME280_temperature;BME280_humidity;BME280_pressure;Samples;Min_cycle;Max_cycle;Signal;HPM_P1;HPM_P2
2021/09/21 00:01:06;;;;;;;20.20;4.50;;;;;;;;;;5076605;28;20456;-80
2021/09/21 00:03:35;;;;;;;17.67;3.73;;;;;;;;;;5072345;28;20451;-80
2021/09/21 00:06:03;;;;;;;19.10;3.90;;;;;;;;;;5077814;28;20539;-80
2021/09/21 00:08:31;;;;;;;16.90;3.67;;;;;;;;;;5082381;28;20467;-80
2021/09/21 00:10:59;;;;;;;16.70;3.87;;;;;;;;;;5065713;28;20450;-78
2021/09/21 00:13:26;;;;;;;17.57;3.60;;;;;;;;;;5069593;28;20442;-79
2021/09/21 00:15:53;;;;;;;18.70;4.40;;;;;;;;;;5075114;28;20446;-79
2021/09/21 00:18:21;;;;;;;18.63;4.47;;;;;;;;;;5074111;28;20825;-80
2021/09/21 00:20:49;;;;;;;20.60;4.40;;;;;;;;;;5073957;28;20478;-79
2021/09/21 00:23:16;;;;;;;20.10;4.10;;;;;;;;;;5074694;28;20616;-81
2021/09/21 00:25:43;;;;;;;18.10;3.27;;;;;;;;;;5074350;28;20454;-80
2021/09/21 00:28:10;;;;;;;20.23;4.27;;;;;;;;;;5074952;28;20474;-77
2021/09/21 00:30:45;;;;;;;19.77;2.93;;;;;;;;;;5074671;28;20447;-78
2021/09/21 00:33:17;;;;;;;18.93;3.90;;;;;;;;;;5075421;28;20947;-78
2021/09/21 00:35:44;;;;;;;18.97;3.37;;;;;;;;;;5076571;28;20542;-80
2021/09/21 00:38:13;;;;;;;17.80;3.60;;;;;;;;;;5077429;28;20463;-79
2021/09/21 00:40:40;;;;;;;18.27;3.47;;;;;;;;;;5076193;28;21038;-78
2021/09/21 00:43:07;;;;;;;20.00;3.43;;;;;;;;;;5088107;28;20453;-78
2021/09/21 00:45:35;;;;;;;18.97;3.70;;;;;;;;;;5079667;28;20450;-78
2021/09/21 00:48:02;;;;;;;21.23;4.20;;;;;;;;;;5074880;28;20468;-79
2021/09/21 00:50:30;;;;;;;22.20;4.13;;;;;;;;;;5074506;28;20459;-79
2021/09/21 00:52:58;;;;;;;19.07;3.70;;;;;;;;;;5075828;28;20452;-78
2021/09/21 00:55:26;;;;;;;20.73;4.00;;;;;;;;;;5076760;28;20839;-79
2021/09/21 00:57:53;;;;;;;22.00;4.60;;;;;;;;;;5074578;28;20474;-80
2021/09/21 01:00:21;;;;;;;20.70;4.37;;;;;;;;;;5075028;28;20486;-80
2021/09/21 01:02:49;;;;;;;21.80;4.00;;;;;;;;;;5075876;28;20454;-79
2021/09/21 01:05:16;;;;;;;21.37;4.60;;;;;;;;;;5077814;28;20449;-79
2021/09/21 01:07:45;;;;;;;17.63;3.87;;;;;;;;;;5076142;28;20639;-78
2021/09/21 01:10:13;;;;;;;21.83;3.83;;;;;;;;;;5075459;28;20449;-80
2021/09/21 01:12:42;;;;;;;23.10;4.17;;;;;;;;;;5075566;28;20468;-78
2021/09/21 01:15:09;;;;;;;26.03;4.50;;;;;;;;;;5075366;28;20463;-78
2021/09/21 01:17:36;;;;;;;26.00;3.87;;;;;;;;;;5073628;28;20479;-77
2021/09/21 01:20:04;;;;;;;32.73;4.47;;;;;;;;;;5074311;28;20487;-79
2021/09/21 01:22:33;;;;;;;26.50;3.60;;;;;;;;;;5054943;28;20447;-79
2021/09/21 01:25:00;;;;;;;27.13;4.10;;;;;;;;;;5065323;28;20831;-77
2021/09/21 01:27:27;;;;;;;28.90;3.80;;;;;;;;;;5073598;28;20483;-78
2021/09/21 01:29:55;;;;;;;26.93;3.53;;;;;;;;;;5073822;28;20447;-78
2021/09/21 01:32:22;;;;;;;27.40;4.50;;;;;;;;;;5066024;28;20455;-78
2021/09/21 01:34:50;;;;;;;27.60;3.87;;;;;;;;;;5053909;28;20453;-78
2021/09/21 01:37:17;;;;;;;27.37;3.77;;;;;;;;;;5067196;28;20482;-78
2021/09/21 01:39:46;;;;;;;31.70;4.47;;;;;;;;;;5074796;28;20483;-78
2021/09/21 01:42:13;;;;;;;30.63;4.13;;;;;;;;;;5070823;28;20803;-78
2021/09/21 01:44:40;;;;;;;27.63;4.00;;;;;;;;;;5054952;28;20452;-78
2021/09/21 01:47:07;;;;;;;33.93;4.87;;;;;;;;;;5066189;28;20461;-78
2021/09/21 01:49:41;;;;;;;27.80;3.83;;;;;;;;;;5075388;28;20835;-78
2021/09/21 01:52:12;;;;;;;29.40;4.57;;;;;;;;;;5074343;28;20506;-78
2021/09/21 01:55:03;;;;;;;27.47;4.07;;;;;;;;;;5075530;28;20456;-78
2021/09/21 02:00:16;;;;;;;29.80;4.47;;;;;;;;;;5063466;28;20485;-86
2021/09/21 02:02:43;;;;;;;25.67;4.53;;;;;;;;;;5076057;28;20459;-86
2021/09/21 02:05:11;;;;;;;23.40;4.37;;;;;;;;;;5073309;28;20452;-86
2021/09/21 02:07:38;;;;;;;23.87;4.07;;;;;;;;;;5080471;28;20974;-86
2021/09/21 02:10:06;;;;;;;23.00;4.33;;;;;;;;;;5057036;28;20519;-86
2021/09/21 02:12:34;;;;;;;21.70;4.40;;;;;;;;;;5073006;28;20456;-87
2021/09/21 02:15:01;;;;;;;18.63;3.77;;;;;;;;;;5093500;28;20455;-86
2021/09/21 02:17:29;;;;;;;18.30;3.60;;;;;;;;;;5082094;28;20430;-86
2021/09/21 02:19:56;;;;;;;18.73;4.33;;;;;;;;;;5068910;28;20482;-86
2021/09/21 02:22:23;;;;;;;17.07;3.83;;;;;;;;;;5069460;28;20446;-87
2021/09/21 02:24:50;;;;;;;17.70;4.80;;;;;;;;;;5072256;28;20457;-86
2021/09/21 02:27:17;;;;;;;16.60;4.07;;;;;;;;;;5058078;28;20454;-87
2021/09/21 02:29:46;;;;;;;15.97;3.73;;;;;;;;;;5070122;28;20450;-87
2021/09/21 02:32:13;;;;;;;17.27;4.30;;;;;;;;;;5069236;28;20549;-86
2021/09/21 02:34:44;;;;;;;17.03;3.70;;;;;;;;;;5072705;28;20499;-87
2021/09/21 02:37:12;;;;;;;17.00;3.93;;;;;;;;;;5059962;28;20449;-87
2021/09/21 02:39:39;;;;;;;17.90;4.20;;;;;;;;;;5053508;28;20991;-86
2021/09/21 02:42:06;;;;;;;16.50;3.97;;;;;;;;;;5075106;28;20554;-87
2021/09/21 02:44:34;;;;;;;19.27;4.87;;;;;;;;;;5075328;28;20496;-86
2021/09/21 02:47:02;;;;;;;17.53;4.47;;;;;;;;;;5072182;28;20459;-87
2021/09/21 02:49:30;;;;;;;17.03;4.70;;;;;;;;;;5065564;28;21063;-88
2021/09/21 02:51:57;;;;;;;19.03;3.80;;;;;;;;;;5064745;28;20454;-86
2021/09/21 02:54:24;;;;;;;17.70;4.50;;;;;;;;;;5071636;28;20455;-87
2021/09/21 02:56:51;;;;;;;16.40;4.30;;;;;;;;;;5070915;28;20443;-87
2021/09/21 02:59:19;;;;;;;18.77;4.50;;;;;;;;;;5077566;28;20481;-87
2021/09/21 03:01:46;;;;;;;16.50;4.00;;;;;;;;;;5082895;28;21071;-87
2021/09/21 03:04:18;;;;;;;17.30;4.10;;;;;;;;;;5091839;28;20453;-86
2021/09/21 03:06:48;;;;;;;16.93;4.40;;;;;;;;;;5091072;28;20453;-87
2021/09/21 03:09:20;;;;;;;17.53;4.87;;;;;;;;;;5067294;28;20516;-86
2021/09/21 03:11:50;;;;;;;16.70;4.50;;;;;;;;;;5079573;28;20450;-87
2021/09/21 03:19:53;;;;;;;18.97;5.50;;;;;;;;;;5066206;28;20427;-87
2021/09/21 03:22:21;;;;;;;18.23;4.90;;;;;;;;;;5075188;28;20953;-87
2021/09/21 03:24:48;;;;;;;18.60;5.53;;;;;;;;;;5071462;28;20462;-87
2021/09/21 03:27:15;;;;;;;17.50;4.50;;;;;;;;;;5074101;28;20449;-86
2021/09/21 03:29:42;;;;;;;18.23;5.00;;;;;;;;;;5075419;28;20842;-87
2021/09/21 03:32:09;;;;;;;18.30;4.23;;;;;;;;;;5075402;28;20542;-87
2021/09/21 03:34:38;;;;;;;16.77;4.50;;;;;;;;;;5079630;28;20463;-87
2021/09/21 03:37:07;;;;;;;19.50;5.17;;;;;;;;;;5079198;28;20463;-87
2021/09/21 03:39:34;;;;;;;17.10;5.30;;;;;;;;;;5083647;28;20470;-87
2021/09/21 03:42:01;;;;;;;18.20;4.70;;;;;;;;;;5081316;28;20489;-87
2021/09/21 03:44:28;;;;;;;17.03;4.87;;;;;;;;;;5075139;28;20459;-86
2021/09/21 03:46:56;;;;;;;16.97;4.30;;;;;;;;;;5069335;28;20458;-87
2021/09/21 03:49:23;;;;;;;17.50;4.40;;;;;;;;;;5087139;28;20668;-87
2021/09/21 03:51:51;;;;;;;17.90;5.10;;;;;;;;;;5083579;28;20450;-87
2021/09/21 03:54:19;;;;;;;17.80;4.43;;;;;;;;;;5075109;28;20457;-87
2021/09/21 03:56:46;;;;;;;18.43;5.60;;;;;;;;;;5074426;28;20446;-87
2021/09/21 03:59:13;;;;;;;18.93;5.30;;;;;;;;;;5075251;28;20497;-87
2021/09/21 04:01:41;;;;;;;17.37;5.30;;;;;;;;;;5074906;28;20492;-87
2021/09/21 04:04:08;;;;;;;22.50;4.83;;;;;;;;;;5074990;28;20839;-87
2021/09/21 04:06:35;;;;;;;18.97;5.33;;;;;;;;;;5074598;28;20434;-88
2021/09/21 04:09:02;;;;;;;18.23;5.23;;;;;;;;;;5075471;28;20471;-87
2021/09/21 04:11:31;;;;;;;19.57;5.30;;;;;;;;;;5075018;28;20450;-87
2021/09/21 04:13:58;;;;;;;21.47;5.90;;;;;;;;;;5086867;28;20424;-87
2021/09/21 04:16:28;;;;;;;17.20;4.80;;;;;;;;;;5089171;28;20477;-87
2021/09/21 04:18:56;;;;;;;17.90;5.20;;;;;;;;;;5080440;28;20528;-87
2021/09/21 04:21:23;;;;;;;18.70;5.23;;;;;;;;;;5093740;28;21027;-87
2021/09/21 04:23:50;;;;;;;18.20;5.70;;;;;;;;;;5077088;28;20464;-87
2021/09/21 04:26:18;;;;;;;17.67;5.73;;;;;;;;;;5082085;28;20497;-87
2021/09/21 04:28:46;;;;;;;20.43;5.93;;;;;;;;;;5082309;28;20466;-87
2021/09/21 04:31:15;;;;;;;20.37;6.57;;;;;;;;;;5081472;28;20455;-87
2021/09/21 04:33:43;;;;;;;20.03;6.07;;;;;;;;;;5082538;28;20448;-86
2021/09/21 04:36:11;;;;;;;23.20;5.20;;;;;;;;;;5073635;28;20959;-86
2021/09/21 04:38:40;;;;;;;19.20;5.27;;;;;;;;;;5074200;28;20489;-87
2021/09/21 04:41:07;;;;;;;18.93;6.43;;;;;;;;;;5073529;28;20499;-87
2021/09/21 04:43:35;;;;;;;17.87;5.27;;;;;;;;;;5073904;28;20481;-87
2021/09/21 04:46:04;;;;;;;19.60;5.53;;;;;;;;;;5073850;28;20554;-87
2021/09/21 04:48:31;;;;;;;19.93;6.00;;;;;;;;;;5073365;28;20474;-87
2021/09/21 04:50:58;;;;;;;20.50;5.80;;;;;;;;;;5073561;28;20442;-87
2021/09/21 04:53:26;;;;;;;17.60;5.70;;;;;;;;;;5073983;28;20521;-87
2021/09/21 04:55:53;;;;;;;17.90;6.57;;;;;;;;;;5076254;28;20464;-87
2021/09/21 04:58:20;;;;;;;18.63;5.90;;;;;;;;;;5084581;28;20475;-87
2021/09/21 05:00:49;;;;;;;20.77;5.77;;;;;;;;;;5087505;28;20942;-88
2021/09/21 05:03:17;;;;;;;20.10;5.73;;;;;;;;;;5087450;28;20485;-87
2021/09/21 05:05:45;;;;;;;21.43;6.17;;;;;;;;;;5081940;28;20963;-87
2021/09/21 05:08:12;;;;;;;19.30;6.00;;;;;;;;;;5080463;28;20470;-87
2021/09/21 05:10:39;;;;;;;20.23;6.23;;;;;;;;;;5075551;28;20450;-87
2021/09/21 05:13:06;;;;;;;18.40;6.93;;;;;;;;;;5056003;28;20456;-87
2021/09/21 05:15:33;;;;;;;19.27;6.40;;;;;;;;;;5081871;28;20445;-87
2021/09/21 05:18:00;;;;;;;20.60;5.68;;;;;;;;;;5091796;28;20794;-86
2021/09/21 05:20:29;;;;;;;19.10;5.93;;;;;;;;;;5093848;28;20208;-86
2021/09/21 05:22:56;;;;;;;19.80;7.27;;;;;;;;;;5075263;28;20466;-86
2021/09/21 05:25:23;;;;;;;19.40;5.80;;;;;;;;;;5074132;28;20950;-86
2021/09/21 05:27:51;;;;;;;18.00;5.53;;;;;;;;;;5075206;28;20470;-86
2021/09/21 05:30:19;;;;;;;20.00;6.00;;;;;;;;;;5075241;28;20450;-86
2021/09/21 05:32:46;;;;;;;22.33;6.60;;;;;;;;;;5074267;28;21000;-86
2021/09/21 05:35:14;;;;;;;18.63;5.67;;;;;;;;;;5074785;28;20463;-86
2021/09/21 05:37:43;;;;;;;19.57;6.40;;;;;;;;;;5073502;28;20999;-86
2021/09/21 05:40:10;;;;;;;19.53;6.67;;;;;;;;;;5074188;28;20483;-87
2021/09/21 05:42:38;;;;;;;20.97;6.80;;;;;;;;;;5072811;28;20556;-86
2021/09/21 05:45:05;;;;;;;21.10;6.20;;;;;;;;;;5073124;28;20457;-86
2021/09/21 05:47:33;;;;;;;24.60;6.87;;;;;;;;;;5075760;28;20514;-86
2021/09/21 05:50:00;;;;;;;19.77;6.37;;;;;;;;;;5073102;28;20457;-87
2021/09/21 05:52:27;;;;;;;23.60;7.13;;;;;;;;;;5072721;28;20962;-87
2021/09/21 05:54:56;;;;;;;24.47;7.00;;;;;;;;;;5072539;28;20523;-87
2021/09/21 05:57:23;;;;;;;19.60;5.90;;;;;;;;;;5086681;28;20446;-88
2021/09/21 05:59:50;;;;;;;21.50;7.80;;;;;;;;;;5083625;28;20469;-88
2021/09/21 06:02:17;;;;;;;20.83;6.87;;;;;;;;;;5081450;28;20848;-87
2021/09/21 06:04:44;;;;;;;24.40;7.80;;;;;;;;;;5090753;28;20463;-88
2021/09/21 06:07:11;;;;;;;24.40;8.37;;;;;;;;;;5094137;28;20457;-88
2021/09/21 06:09:38;;;;;;;19.20;7.40;;;;;;;;;;5093707;28;21009;-87
2021/09/21 06:12:07;;;;;;;20.17;6.97;;;;;;;;;;5078868;28;20451;-88
2021/09/21 06:14:34;;;;;;;19.30;6.83;;;;;;;;;;5073848;28;21006;-87
2021/09/21 06:17:01;;;;;;;21.53;6.90;;;;;;;;;;5068679;28;20451;-88
2021/09/21 06:19:28;;;;;;;21.27;7.07;;;;;;;;;;5068271;28;20464;-87
2021/09/21 06:21:55;;;;;;;24.67;8.00;;;;;;;;;;5078871;28;20521;-88
2021/09/21 06:24:23;;;;;;;20.50;6.80;;;;;;;;;;5066437;28;20954;-86
2021/09/21 06:26:50;;;;;;;21.77;8.27;;;;;;;;;;5059273;28;20469;-87
2021/09/21 06:29:19;;;;;;;22.30;7.73;;;;;;;;;;5060454;28;20466;-86
2021/09/21 06:31:46;;;;;;;19.83;7.07;;;;;;;;;;5067636;28;20443;-86
2021/09/21 06:34:13;;;;;;;21.23;6.80;;;;;;;;;;5068725;28;20451;-89
2021/09/21 06:36:40;;;;;;;19.83;7.23;;;;;;;;;;5057569;28;20983;-90
2021/09/21 06:39:07;;;;;;;18.60;7.03;;;;;;;;;;5055361;28;20814;-89
2021/09/21 06:41:35;;;;;;;20.30;7.43;;;;;;;;;;5062805;28;20570;-90
2021/09/21 06:44:02;;;;;;;23.63;8.97;;;;;;;;;;5068293;28;20830;-89
2021/09/21 06:46:30;;;;;;;20.80;7.07;;;;;;;;;;5066209;28;20471;-90
2021/09/21 06:48:58;;;;;;;22.17;8.17;;;;;;;;;;5071265;28;20478;-90
2021/09/21 06:51:25;;;;;;;19.60;7.40;;;;;;;;;;5071866;28;20455;-89
2021/09/21 06:53:52;;;;;;;21.50;8.30;;;;;;;;;;5071149;28;20447;-89
2021/09/21 06:56:19;;;;;;;23.30;7.30;;;;;;;;;;5071246;28;20465;-88
2021/09/21 06:58:46;;;;;;;23.40;7.67;;;;;;;;;;5071415;28;20483;-89
2021/09/21 07:01:13;;;;;;;21.80;7.40;;;;;;;;;;5070464;28;20480;-89
2021/09/21 07:03:42;;;;;;;23.93;8.80;;;;;;;;;;5071516;28;20465;-89
2021/09/21 07:06:09;;;;;;;24.50;9.30;;;;;;;;;;5070599;28;20456;-88
2021/09/21 07:08:36;;;;;;;20.60;8.00;;;;;;;;;;5069440;28;20546;-90
2021/09/21 07:11:03;;;;;;;21.53;8.30;;;;;;;;;;5064915;28;20450;-89
2021/09/21 07:13:30;;;;;;;23.00;8.43;;;;;;;;;;5065271;28;20793;-89
2021/09/21 07:15:57;;;;;;;21.80;7.63;;;;;;;;;;5068594;28;20942;-89
2021/09/21 07:18:25;;;;;;;23.37;9.10;;;;;;;;;;5071285;28;20469;-90
2021/09/21 07:20:53;;;;;;;24.13;9.47;;;;;;;;;;5061714;28;20447;-90
2021/09/21 07:23:20;;;;;;;21.63;7.77;;;;;;;;;;5072469;28;20442;-89
2021/09/21 07:25:47;;;;;;;19.80;7.90;;;;;;;;;;5073742;28;20450;-89
2021/09/21 07:28:14;;;;;;;21.20;8.30;;;;;;;;;;5077950;28;20464;-91
2021/09/21 07:30:42;;;;;;;23.50;7.67;;;;;;;;;;5089707;28;20534;-89
2021/09/21 07:33:13;;;;;;;20.10;7.63;;;;;;;;;;5065608;28;20436;-89
2021/09/21 07:35:40;;;;;;;21.57;6.90;;;;;;;;;;5071467;28;20454;-88
2021/09/21 07:38:08;;;;;;;20.00;7.00;;;;;;;;;;5070556;28;20536;-90
2021/09/21 07:40:36;;;;;;;22.10;7.00;;;;;;;;;;5062744;28;20459;-89
2021/09/21 07:43:03;;;;;;;23.23;8.77;;;;;;;;;;5055177;28;21006;-88
2021/09/21 07:45:30;;;;;;;21.23;7.27;;;;;;;;;;5071025;28;20452;-89
2021/09/21 07:47:57;;;;;;;25.17;8.80;;;;;;;;;;5063949;28;20489;-90
2021/09/21 07:50:26;;;;;;;24.03;8.30;;;;;;;;;;5069309;28;20448;-89
2021/09/21 07:52:53;;;;;;;20.87;7.83;;;;;;;;;;5068442;28;20952;-89
2021/09/21 07:55:22;;;;;;;20.50;7.17;;;;;;;;;;5064274;28;20439;-89
2021/09/21 07:57:49;;;;;;;23.27;9.00;;;;;;;;;;5070928;28;20486;-89
2021/09/21 08:00:21;;;;;;;21.57;7.20;;;;;;;;;;5088740;22;20495;-79
2021/09/21 08:02:48;;;;;;;23.13;7.10;;;;;;;;;;5060193;28;20485;-79
2021/09/21 08:05:19;;;;;;;23.83;6.93;;;;;;;;;;5068593;28;20454;-80
2021/09/21 08:07:46;;;;;;;21.70;8.47;;;;;;;;;;5072739;28;20533;-79
2021/09/21 08:10:13;;;;;;;21.23;8.33;;;;;;;;;;5058325;28;20865;-78
2021/09/21 08:12:42;;;;;;;20.10;6.60;;;;;;;;;;5075352;28;20454;-77
2021/09/21 08:15:09;;;;;;;19.20;7.00;;;;;;;;;;5079599;28;20470;-82
2021/09/21 08:17:37;;;;;;;18.70;6.50;;;;;;;;;;5077582;28;20963;-82
2021/09/21 08:20:04;;;;;;;19.30;7.53;;;;;;;;;;5061756;28;20551;-82
2021/09/21 08:22:32;;;;;;;20.67;6.57;;;;;;;;;;5070977;28;20651;-81
2021/09/21 08:25:00;;;;;;;19.10;6.67;;;;;;;;;;5076238;28;20459;-83
2021/09/21 08:27:27;;;;;;;21.33;7.00;;;;;;;;;;5067335;28;20524;-82
2021/09/21 08:32:44;;;;;;;20.23;7.67;;;;;;;;;;5079084;28;20450;-79
2021/09/21 08:35:12;;;;;;;22.77;8.07;;;;;;;;;;5075389;28;20536;-77
2021/09/21 08:37:39;;;;;;;25.80;7.73;;;;;;;;;;5074932;28;20539;-79
2021/09/21 08:40:07;;;;;;;20.43;6.80;;;;;;;;;;5074585;28;20466;-77
2021/09/21 08:42:34;;;;;;;20.67;6.93;;;;;;;;;;5076285;28;20532;-76
2021/09/21 08:45:03;;;;;;;17.47;5.20;;;;;;;;;;5079530;28;20438;-83
2021/09/21 08:47:31;;;;;;;16.63;4.60;;;;;;;;;;5094041;28;20511;-80
2021/09/21 08:49:58;;;;;;;16.77;4.47;;;;;;;;;;5080971;28;20521;-82
2021/09/21 08:52:25;;;;;;;17.77;5.40;;;;;;;;;;5076307;28;20453;-83
2021/09/21 08:54:52;;;;;;;19.23;4.93;;;;;;;;;;5070919;28;20551;-82
2021/09/21 08:57:20;;;;;;;17.50;5.13;;;;;;;;;;5081378;28;20944;-80
2021/09/21 08:59:52;;;;;;;16.50;4.80;;;;;;;;;;5071942;28;20484;-82
2021/09/21 09:02:23;;;;;;;19.93;5.30;;;;;;;;;;5074968;28;20916;-81
2021/09/21 09:04:58;;;;;;;16.43;4.00;;;;;;;;;;5069561;28;20912;-82
2021/09/21 09:07:25;;;;;;;17.43;4.30;;;;;;;;;;5072588;28;20455;-81
2021/09/21 09:10:01;;;;;;;18.30;5.40;;;;;;;;;;5068906;28;20476;-81
2021/09/21 09:12:29;;;;;;;16.60;5.50;;;;;;;;;;5071372;28;20456;-83
2021/09/21 09:14:56;;;;;;;18.70;5.10;;;;;;;;;;5069652;28;20996;-81
2021/09/21 09:17:25;;;;;;;19.50;5.93;;;;;;;;;;5069558;28;20459;-82
2021/09/21 09:19:52;;;;;;;15.50;4.07;;;;;;;;;;5067433;28;20480;-80
2021/09/21 09:22:25;;;;;;;18.60;5.13;;;;;;;;;;5066378;28;20491;-80
2021/09/21 09:24:54;;;;;;;18.20;4.03;;;;;;;;;;5073942;28;20452;-82
2021/09/21 09:27:22;;;;;;;16.97;4.80;;;;;;;;;;5074756;28;21043;-82
2021/09/21 09:29:53;;;;;;;14.70;4.30;;;;;;;;;;5073530;28;21022;-82
2021/09/21 09:32:20;;;;;;;15.33;4.40;;;;;;;;;;5071383;28;20462;-81
2021/09/21 09:34:48;;;;;;;14.87;4.70;;;;;;;;;;5067486;28;20454;-81
2021/09/21 09:37:17;;;;;;;14.73;4.73;;;;;;;;;;5064049;28;20453;-82
2021/09/21 09:39:45;;;;;;;16.00;4.70;;;;;;;;;;5067052;28;20532;-81
2021/09/21 09:42:13;;;;;;;12.50;3.63;;;;;;;;;;5067352;28;20869;-82
2021/09/21 09:44:43;;;;;;;12.80;4.17;;;;;;;;;;5073777;28;20841;-82
2021/09/21 09:47:10;;;;;;;12.40;3.20;;;;;;;;;;5080358;28;20959;-81
2021/09/21 09:49:38;;;;;;;12.60;4.33;;;;;;;;;;5064856;28;20467;-82
2021/09/21 09:52:07;;;;;;;12.50;3.70;;;;;;;;;;5064136;28;20455;-81
2021/09/21 09:54:35;;;;;;;10.73;3.37;;;;;;;;;;5079575;28;20454;-82
2021/09/21 09:57:03;;;;;;;10.57;3.10;;;;;;;;;;5072119;28;20451;-80
2021/09/21 09:59:30;;;;;;;14.20;2.70;;;;;;;;;;5079701;28;21020;-81
2021/09/21 10:01:57;;;;;;;11.60;3.17;;;;;;;;;;5073475;28;20455;-83
2021/09/21 10:04:24;;;;;;;11.47;3.23;;;;;;;;;;5072689;28;20458;-81
2021/09/21 10:06:52;;;;;;;12.13;3.00;;;;;;;;;;5077193;28;21222;-82
2021/09/21 10:09:20;;;;;;;10.60;2.87;;;;;;;;;;5063958;28;20467;-82
2021/09/21 10:11:49;;;;;;;11.30;2.60;;;;;;;;;;5072943;28;20546;-82
2021/09/21 10:14:18;;;;;;;9.73;2.53;;;;;;;;;;5074198;28;20459;-82
2021/09/21 10:16:51;;;;;;;13.47;2.90;;;;;;;;;;5072913;28;20451;-82
2021/09/21 10:19:20;;;;;;;9.10;2.50;;;;;;;;;;5067163;28;20471;-82
2021/09/21 10:21:48;;;;;;;10.00;2.73;;;;;;;;;;5073176;28;20478;-79
2021/09/21 10:24:15;;;;;;;11.07;2.50;;;;;;;;;;5071144;28;20459;-81
2021/09/21 10:26:49;;;;;;;10.53;2.40;;;;;;;;;;5073152;28;20461;-80
2021/09/21 10:35:16;;;;;;;12.23;3.10;;;;;;;;;;5047548;28;20453;-83
2021/09/21 10:37:44;;;;;;;11.57;3.03;;;;;;;;;;5067933;28;20803;-83
2021/09/21 10:40:11;;;;;;;11.83;3.47;;;;;;;;;;5066573;28;21003;-83
2021/09/21 10:42:50;;;;;;;12.50;3.10;;;;;;;;;;5075472;28;20486;-83
2021/09/21 10:45:24;;;;;;;11.03;3.40;;;;;;;;;;5073255;28;20505;-84
2021/09/21 10:48:00;;;;;;;10.30;2.90;;;;;;;;;;5074353;28;20455;-85
2021/09/21 10:50:27;;;;;;;10.50;3.07;;;;;;;;;;5077432;28;20470;-84
2021/09/21 10:53:03;;;;;;;10.57;2.90;;;;;;;;;;5078531;28;20439;-84
2021/09/21 10:55:36;;;;;;;12.30;3.00;;;;;;;;;;5079671;28;20530;-81
2021/09/21 10:58:20;;;;;;;11.13;2.90;;;;;;;;;;5078788;28;20459;-81
2021/09/21 11:03:33;;;;;;;14.30;3.60;;;;;;;;;;5027692;28;20497;-83
2021/09/21 11:06:01;;;;;;;12.10;3.40;;;;;;;;;;5059937;28;20456;-83
2021/09/21 11:08:31;;;;;;;11.60;3.20;;;;;;;;;;5058655;28;20458;-84
2021/09/21 11:11:00;;;;;;;11.73;3.77;;;;;;;;;;5064390;28;20464;-85
2021/09/21 11:13:32;;;;;;;10.00;2.90;;;;;;;;;;5091109;28;20436;-82
2021/09/21 11:15:59;;;;;;;10.40;3.37;;;;;;;;;;5072586;28;20439;-83
2021/09/21 11:18:27;;;;;;;12.70;3.07;;;;;;;;;;5072616;28;20439;-84
2021/09/21 11:20:55;;;;;;;10.60;3.90;;;;;;;;;;5074884;28;20821;-84
2021/09/21 11:23:23;;;;;;;15.37;2.90;;;;;;;;;;5067773;28;20479;-82
2021/09/21 11:25:51;;;;;;;10.87;3.07;;;;;;;;;;5069805;28;20461;-84
2021/09/21 11:28:18;;;;;;;11.03;3.40;;;;;;;;;;5075747;28;20958;-84
2021/09/21 11:30:48;;;;;;;10.60;3.47;;;;;;;;;;5078258;28;20451;-83
2021/09/21 11:33:15;;;;;;;10.67;3.30;;;;;;;;;;5076841;28;20524;-84
2021/09/21 11:35:46;;;;;;;11.10;3.17;;;;;;;;;;5073938;28;20462;-84
2021/09/21 11:38:14;;;;;;;10.67;2.60;;;;;;;;;;5070813;28;20451;-84
2021/09/21 11:40:43;;;;;;;9.00;2.67;;;;;;;;;;5070073;28;20471;-84
2021/09/21 11:43:11;;;;;;;11.40;3.53;;;;;;;;;;5074105;28;20511;-84
2021/09/21 11:45:38;;;;;;;11.83;3.20;;;;;;;;;;5071927;28;20486;-84
2021/09/21 11:48:06;;;;;;;12.03;3.10;;;;;;;;;;5077879;28;20457;-84
2021/09/21 11:50:36;;;;;;;11.60;3.90;;;;;;;;;;5077811;28;20463;-81
2021/09/21 11:53:04;;;;;;;11.47;3.30;;;;;;;;;;5078343;28;20438;-83
2021/09/21 11:55:32;;;;;;;10.17;2.40;;;;;;;;;;5077162;28;20451;-83
2021/09/21 11:57:59;;;;;;;12.03;2.87;;;;;;;;;;5076054;28;20447;-79
2021/09/21 12:00:29;;;;;;;10.23;2.97;;;;;;;;;;5076518;28;20474;-79
2021/09/21 12:02:58;;;;;;;10.73;2.77;;;;;;;;;;5076189;28;20483;-80
2021/09/21 12:05:30;;;;;;;13.07;3.20;;;;;;;;;;5076277;28;20459;-79
2021/09/21 12:07:58;;;;;;;10.93;3.10;;;;;;;;;;5077102;28;20435;-82
2021/09/21 12:10:29;;;;;;;10.47;2.83;;;;;;;;;;5076473;28;20508;-78
2021/09/21 12:13:02;;;;;;;10.63;2.77;;;;;;;;;;5076422;28;20443;-78
2021/09/21 12:15:30;;;;;;;10.60;2.57;;;;;;;;;;5077192;28;20452;-82
2021/09/21 12:17:58;;;;;;;12.57;2.67;;;;;;;;;;5070932;28;20462;-84
2021/09/21 12:20:30;;;;;;;11.60;2.70;;;;;;;;;;5077942;28;20473;-84
2021/09/21 12:22:57;;;;;;;11.43;3.03;;;;;;;;;;5077312;28;20486;-84
2021/09/21 12:25:31;;;;;;;10.70;2.53;;;;;;;;;;5077468;28;20465;-83
2021/09/21 12:27:58;;;;;;;9.80;2.40;;;;;;;;;;5077634;28;20550;-84
2021/09/21 12:30:27;;;;;;;9.47;2.20;;;;;;;;;;5076653;28;20471;-83
2021/09/21 12:32:57;;;;;;;10.97;2.77;;;;;;;;;;5071889;28;20443;-85
2021/09/21 12:35:29;;;;;;;9.57;2.80;;;;;;;;;;5077314;28;20455;-83
2021/09/21 12:38:18;;;;;;;11.77;3.50;;;;;;;;;;5075034;28;21087;-84
2021/09/21 12:41:04;;;;;;;10.80;3.50;;;;;;;;;;5077060;28;20548;-79
2021/09/21 12:43:32;;;;;;;10.87;3.27;;;;;;;;;;5073104;28;20820;-83
2021/09/21 12:46:00;;;;;;;12.50;2.77;;;;;;;;;;5080180;28;20455;-84
2021/09/21 12:48:28;;;;;;;12.77;3.90;;;;;;;;;;5075842;28;20454;-83
2021/09/21 12:50:58;;;;;;;11.47;4.30;;;;;;;;;;5078401;28;20461;-82
2021/09/21 12:53:26;;;;;;;11.10;4.00;;;;;;;;;;5081165;28;20597;-84
2021/09/21 12:55:57;;;;;;;12.00;3.07;;;;;;;;;;5080760;28;20447;-84
2021/09/21 12:58:25;;;;;;;10.43;3.67;;;;;;;;;;5078470;28;20451;-84
2021/09/21 13:00:52;;;;;;;12.57;3.43;;;;;;;;;;5079380;28;20450;-83
2021/09/21 13:03:20;;;;;;;12.87;3.87;;;;;;;;;;5077845;28;20481;-84
2021/09/21 13:05:48;;;;;;;10.83;3.50;;;;;;;;;;5074534;28;20455;-83
2021/09/21 13:08:16;;;;;;;10.70;3.33;;;;;;;;;;5077354;28;20448;-84
2021/09/21 13:10:44;;;;;;;11.37;3.50;;;;;;;;;;5077929;28;20469;-83
2021/09/21 13:13:11;;;;;;;13.37;3.30;;;;;;;;;;5080496;28;20443;-84
2021/09/21 13:15:39;;;;;;;11.30;3.93;;;;;;;;;;5080651;28;20479;-83
2021/09/21 13:18:06;;;;;;;10.30;3.17;;;;;;;;;;5075538;28;20461;-81
2021/09/21 13:20:34;;;;;;;10.33;3.33;;;;;;;;;;5069676;28;20851;-83
2021/09/21 13:23:02;;;;;;;12.30;3.43;;;;;;;;;;5077390;28;20486;-84
2021/09/21 13:25:30;;;;;;;9.97;2.83;;;;;;;;;;5074662;28;20538;-78
2021/09/21 13:27:58;;;;;;;11.10;3.83;;;;;;;;;;5075403;28;20519;-80
2021/09/21 13:33:28;;;;;;;10.23;2.70;;;;;;;;;;4939547;28;20552;-84
2021/09/21 13:35:55;;;;;;;10.53;2.70;;;;;;;;;;4990138;28;20459;-85
2021/09/21 13:38:22;;;;;;;10.27;2.60;;;;;;;;;;5060654;28;20445;-84
2021/09/21 13:40:51;;;;;;;11.57;3.07;;;;;;;;;;5094760;28;20470;-84
2021/09/21 13:43:19;;;;;;;10.60;3.57;;;;;;;;;;5092679;28;21012;-84
2021/09/21 13:45:46;;;;;;;9.97;3.00;;;;;;;;;;5087230;28;20451;-82
2021/09/21 13:48:13;;;;;;;11.03;3.67;;;;;;;;;;5070539;28;20509;-84
2021/09/21 13:50:42;;;;;;;9.50;2.93;;;;;;;;;;5093125;28;20537;-82
2021/09/21 13:53:09;;;;;;;10.43;2.60;;;;;;;;;;5076568;28;20451;-82
2021/09/21 13:55:37;;;;;;;9.63;2.20;;;;;;;;;;5079364;28;20455;-81
2021/09/21 13:58:05;;;;;;;10.57;3.20;;;;;;;;;;5087656;28;20469;-84
2021/09/21 14:00:32;;;;;;;9.90;2.40;;;;;;;;;;5096722;22;20502;-88
2021/09/21 14:03:00;;;;;;;10.60;2.80;;;;;;;;;;5073841;28;20435;-88
2021/09/21 14:05:29;;;;;;;10.20;2.40;;;;;;;;;;5072285;28;20444;-90
2021/09/21 14:07:57;;;;;;;9.43;2.73;;;;;;;;;;5063673;28;20458;-90
2021/09/21 14:10:25;;;;;;;9.80;2.63;;;;;;;;;;5077396;28;20479;-89
2021/09/21 14:12:52;;;;;;;9.97;2.67;;;;;;;;;;5077424;28;20458;-89
2021/09/21 14:15:21;;;;;;;12.23;2.70;;;;;;;;;;5077414;28;20991;-90
2021/09/21 14:17:49;;;;;;;10.80;2.37;;;;;;;;;;5063246;28;20448;-88
2021/09/21 14:20:18;;;;;;;9.30;1.97;;;;;;;;;;5081311;28;20546;-89
2021/09/21 14:22:45;;;;;;;9.60;2.47;;;;;;;;;;5088250;28;20447;-89
2021/09/21 14:25:12;;;;;;;10.40;2.80;;;;;;;;;;5087633;28;20503;-90
2021/09/21 14:27:39;;;;;;;10.03;2.23;;;;;;;;;;5094719;28;20446;-91
2021/09/21 14:30:08;;;;;;;9.07;2.57;;;;;;;;;;5088603;28;20473;-88
2021/09/21 14:32:37;;;;;;;8.83;2.43;;;;;;;;;;5061126;28;20542;-87
2021/09/21 14:35:05;;;;;;;9.50;2.43;;;;;;;;;;5075224;28;20450;-89
2021/09/21 14:37:32;;;;;;;9.10;2.10;;;;;;;;;;5077984;28;20454;-88
2021/09/21 14:39:59;;;;;;;18.13;2.33;;;;;;;;;;5086364;28;20471;-87
2021/09/21 14:42:26;;;;;;;10.03;2.63;;;;;;;;;;5074253;28;20469;-89
2021/09/21 14:44:53;;;;;;;9.50;2.40;;;;;;;;;;5073076;28;21036;-88
2021/09/21 14:47:21;;;;;;;10.30;2.57;;;;;;;;;;5073296;28;20453;-87
2021/09/21 14:49:49;;;;;;;9.50;2.57;;;;;;;;;;5063937;28;20458;-88
2021/09/21 14:52:16;;;;;;;10.50;2.40;;;;;;;;;;5068271;28;20456;-86
2021/09/21 14:54:44;;;;;;;9.83;2.60;;;;;;;;;;5078954;28;20453;-87
2021/09/21 14:57:11;;;;;;;10.57;3.13;;;;;;;;;;5069229;28;20993;-87
2021/09/21 14:59:38;;;;;;;12.17;3.80;;;;;;;;;;5071181;28;20466;-86